sensor_id;sensor_type;location;lat;lon;timestamp;temperature;humidity
17986;DHT22;9118;48.122;11.546;2024-03-17T00:02:17;9.60;99.90
17986;DHT22;9118;48.122;11.546;2024-03-17T00:04:42;9.80;99.90
17986;DHT22;9118;48.122;11.546;2024-03-17T00:07:11;10.00;99.90
17986;DHT22;9118;48.122;11.546;2024-03-17T00:09:37;9.80;99.90
17986;DHT22;9118;48.122;11.546;2024-03-17T00:12:04;9.80;99.90
17986;DHT22;9118;48.122;11.546;2024-03-17T00:14:30;9.80;99.90
17986;DHT22;9118;48.122;11.546;2024-03-17T00:16:57;9.80;99.90
17986;DHT22;9118;48.122;11.546;2024-03-17T00:19:23;9.90;99.90
17986;DHT22;9118;48.122;11.546;2024-03-17T00:21:50;9.80;99.90
17986;DHT22;9118;48.122;11.546;2024-03-17T00:24:18;9.90;99.90
17986;DHT22;9118;48.122;11.546;2024-03-17T00:26:45;9.80;99.90
17986;DHT22;9118;48.122;11.546;2024-03-17T00:29:11;9.70;99.90
17986;DHT22;9118;48.122;11.546;2024-03-17T00:31:38;9.70;99.90
17986;DHT22;9118;48.122;11.546;2024-03-17T00:34:03;9.70;99.90
17986;DHT22;9118;48.122;11.546;2024-03-17T00:36:30;9.80;99.90
17986;DHT22;9118;48.122;11.546;2024-03-17T00:38:56;9.80;99.90
17986;DHT22;9118;48.122;11.546;2024-03-17T00:41:25;9.80;99.90
17986;DHT22;9118;48.122;11.546;2024-03-17T00:43:51;9.80;99.90
17986;DHT22;9118;48.122;11.546;2024-03-17T00:46:18;10.00;99.90
17986;DHT22;9118;48.122;11.546;2024-03-17T00:48:46;9.80;99.90
17986;DHT22;9118;48.122;11.546;2024-03-17T00:51:13;9.80;99.90
17986;DHT22;9118;48.122;11.546;2024-03-17T00:53:39;9.80;99.90
17986;DHT22;9118;48.122;11.546;2024-03-17T00:56:06;9.70;99.90
17986;DHT22;9118;48.122;11.546;2024-03-17T00:58:33;10.00;99.90
17986;DHT22;9118;48.122;11.546;2024-03-17T01:01:00;9.70;99.90
17986;DHT22;9118;48.122;11.546;2024-03-17T01:03:26;9.70;99.90
17986;DHT22;9118;48.122;11.546;2024-03-17T01:05:54;9.60;99.90
17986;DHT22;9118;48.122;11.546;2024-03-17T01:08:20;9.30;99.90
17986;DHT22;9118;48.122;11.546;2024-03-17T01:10:47;9.20;99.90
17986;DHT22;9118;48.122;11.546;2024-03-17T01:13:15;9.10;99.90
17986;DHT22;9118;48.122;11.546;2024-03-17T01:15:43;9.20;99.90
17986;DHT22;9118;48.122;11.546;2024-03-17T01:18:09;9.20;99.90
17986;DHT22;9118;48.122;11.546;2024-03-17T01:20:36;9.40;99.90
17986;DHT22;9118;48.122;11.546;2024-03-17T01:23:03;9.40;99.90
17986;DHT22;9118;48.122;11.546;2024-03-17T01:25:30;9.50;99.90
17986;DHT22;9118;48.122;11.546;2024-03-17T01:27:56;9.50;99.90
17986;DHT22;9118;48.122;11.546;2024-03-17T01:30:23;9.60;99.90
17986;DHT22;9118;48.122;11.546;2024-03-17T01:32:51;9.60;99.90
17986;DHT22;9118;48.122;11.546;2024-03-17T01:35:18;9.50;99.90
17986;DHT22;9118;48.122;11.546;2024-03-17T01:37:44;9.60;99.90
17986;DHT22;9118;48.122;11.546;2024-03-17T01:40:11;9.80;99.90
17986;DHT22;9118;48.122;11.546;2024-03-17T01:42:37;9.40;99.90
17986;DHT22;9118;48.122;11.546;2024-03-17T01:45:13;9.40;99.90
17986;DHT22;9118;48.122;11.546;2024-03-17T01:47:43;9.40;99.90
17986;DHT22;9118;48.122;11.546;2024-03-17T01:50:12;9.30;99.90
17986;DHT22;9118;48.122;11.546;2024-03-17T01:52:42;9.30;99.90
17986;DHT22;9118;48.122;11.546;2024-03-17T01:55:09;9.30;99.90
17986;DHT22;9118;48.122;11.546;2024-03-17T01:57:35;9.20;99.90
17986;DHT22;9118;48.122;11.546;2024-03-17T02:00:02;9.50;99.90
17986;DHT22;9118;48.122;11.546;2024-03-17T02:02:30;9.20;99.90
17986;DHT22;9118;48.122;11.546;2024-03-17T02:04:57;9.20;99.90
17986;DHT22;9118;48.122;11.546;2024-03-17T02:07:25;9.30;99.90
17986;DHT22;9118;48.122;11.546;2024-03-17T02:09:52;9.40;99.90
17986;DHT22;9118;48.122;11.546;2024-03-17T02:12:17;9.40;99.90
17986;DHT22;9118;48.122;11.546;2024-03-17T02:14:44;9.40;99.90
17986;DHT22;9118;48.122;11.546;2024-03-17T02:17:10;9.50;99.90
17986;DHT22;9118;48.122;11.546;2024-03-17T02:19:37;9.50;99.90
17986;DHT22;9118;48.122;11.546;2024-03-17T02:22:03;9.50;99.90
17986;DHT22;9118;48.122;11.546;2024-03-17T02:24:32;9.60;99.90
17986;DHT22;9118;48.122;11.546;2024-03-17T02:26:58;9.90;99.90
17986;DHT22;9118;48.122;11.546;2024-03-17T02:29:26;9.80;99.90
17986;DHT22;9118;48.122;11.546;2024-03-17T02:31:53;9.60;99.90
17986;DHT22;9118;48.122;11.546;2024-03-17T02:34:20;9.70;99.90
17986;DHT22;9118;48.122;11.546;2024-03-17T02:36:46;9.70;99.90
17986;DHT22;9118;48.122;11.546;2024-03-17T02:39:13;9.60;99.90
17986;DHT22;9118;48.122;11.546;2024-03-17T02:41:58;9.60;99.90
17986;DHT22;9118;48.122;11.546;2024-03-17T02:44:25;9.80;99.90
17986;DHT22;9118;48.122;11.546;2024-03-17T02:46:52;9.60;99.90
17986;DHT22;9118;48.122;11.546;2024-03-17T02:49:19;9.80;99.90
17986;DHT22;9118;48.122;11.546;2024-03-17T02:51:47;9.60;99.90
17986;DHT22;9118;48.122;11.546;2024-03-17T02:54:14;9.60;99.90
17986;DHT22;9118;48.122;11.546;2024-03-17T02:56:41;9.50;99.90
17986;DHT22;9118;48.122;11.546;2024-03-17T02:59:10;9.60;99.90
17986;DHT22;9118;48.122;11.546;2024-03-17T03:01:37;9.60;99.90
17986;DHT22;9118;48.122;11.546;2024-03-17T03:04:05;9.60;99.90
17986;DHT22;9118;48.122;11.546;2024-03-17T03:06:32;9.60;99.90
17986;DHT22;9118;48.122;11.546;2024-03-17T03:08:59;9.50;99.90
17986;DHT22;9118;48.122;11.546;2024-03-17T03:11:25;9.40;99.90
17986;DHT22;9118;48.122;11.546;2024-03-17T03:13:52;9.40;99.90
17986;DHT22;9118;48.122;11.546;2024-03-17T03:16:21;9.40;99.90
17986;DHT22;9118;48.122;11.546;2024-03-17T03:18:50;9.40;99.90
17986;DHT22;9118;48.122;11.546;2024-03-17T03:21:18;9.40;99.90
17986;DHT22;9118;48.122;11.546;2024-03-17T03:23:47;9.40;99.90
17986;DHT22;9118;48.122;11.546;2024-03-17T03:26:14;9.30;99.90
17986;DHT22;9118;48.122;11.546;2024-03-17T03:28:41;9.30;99.90
17986;DHT22;9118;48.122;11.546;2024-03-17T03:31:10;9.30;99.90
17986;DHT22;9118;48.122;11.546;2024-03-17T03:33:40;9.30;99.90
17986;DHT22;9118;48.122;11.546;2024-03-17T03:36:08;9.50;99.90
17986;DHT22;9118;48.122;11.546;2024-03-17T03:38:35;9.40;99.90
17986;DHT22;9118;48.122;11.546;2024-03-17T03:41:06;9.50;99.90
17986;DHT22;9118;48.122;11.546;2024-03-17T03:43:34;9.50;99.90
17986;DHT22;9118;48.122;11.546;2024-03-17T03:46:01;9.50;99.90
17986;DHT22;9118;48.122;11.546;2024-03-17T03:48:28;9.50;99.90
17986;DHT22;9118;48.122;11.546;2024-03-17T03:50:59;9.90;99.90
17986;DHT22;9118;48.122;11.546;2024-03-17T03:53:26;9.70;99.90
17986;DHT22;9118;48.122;11.546;2024-03-17T03:55:53;9.50;99.90
17986;DHT22;9118;48.122;11.546;2024-03-17T03:58:20;9.50;99.90
17986;DHT22;9118;48.122;11.546;2024-03-17T04:00:47;9.70;99.90
17986;DHT22;9118;48.122;11.546;2024-03-17T04:03:14;9.10;99.90
17986;DHT22;9118;48.122;11.546;2024-03-17T04:05:41;9.30;99.90
17986;DHT22;9118;48.122;11.546;2024-03-17T04:08:09;9.10;99.90
17986;DHT22;9118;48.122;11.546;2024-03-17T04:10:36;9.30;99.90
17986;DHT22;9118;48.122;11.546;2024-03-17T04:13:03;9.60;99.90
17986;DHT22;9118;48.122;11.546;2024-03-17T04:15:30;9.30;99.90
17986;DHT22;9118;48.122;11.546;2024-03-17T04:17:57;9.30;99.90
17986;DHT22;9118;48.122;11.546;2024-03-17T04:20:24;9.20;99.90
17986;DHT22;9118;48.122;11.546;2024-03-17T04:22:51;9.20;99.90
17986;DHT22;9118;48.122;11.546;2024-03-17T04:25:20;9.20;99.90
17986;DHT22;9118;48.122;11.546;2024-03-17T04:27:48;9.20;99.90
17986;DHT22;9118;48.122;11.546;2024-03-17T04:30:15;9.20;99.90
17986;DHT22;9118;48.122;11.546;2024-03-17T04:32:42;9.50;99.90
17986;DHT22;9118;48.122;11.546;2024-03-17T04:35:10;9.30;99.90
17986;DHT22;9118;48.122;11.546;2024-03-17T04:37:38;9.30;99.90
17986;DHT22;9118;48.122;11.546;2024-03-17T04:40:06;9.30;99.90
17986;DHT22;9118;48.122;11.546;2024-03-17T04:42:36;9.30;99.90
17986;DHT22;9118;48.122;11.546;2024-03-17T04:45:05;9.30;99.90
17986;DHT22;9118;48.122;11.546;2024-03-17T04:47:32;9.20;99.90
17986;DHT22;9118;48.122;11.546;2024-03-17T04:49:59;9.20;99.90
17986;DHT22;9118;48.122;11.546;2024-03-17T04:52:26;9.20;99.90
17986;DHT22;9118;48.122;11.546;2024-03-17T04:54:53;9.20;99.90
17986;DHT22;9118;48.122;11.546;2024-03-17T04:57:20;9.20;99.90
17986;DHT22;9118;48.122;11.546;2024-03-17T04:59:48;9.20;99.90
17986;DHT22;9118;48.122;11.546;2024-03-17T05:02:15;9.20;99.90
17986;DHT22;9118;48.122;11.546;2024-03-17T05:04:42;9.20;99.90
17986;DHT22;9118;48.122;11.546;2024-03-17T05:07:09;9.10;99.90
17986;DHT22;9118;48.122;11.546;2024-03-17T05:09:36;9.10;99.90
17986;DHT22;9118;48.122;11.546;2024-03-17T05:12:03;9.10;99.90
17986;DHT22;9118;48.122;11.546;2024-03-17T05:14:30;9.10;99.90
17986;DHT22;9118;48.122;11.546;2024-03-17T05:17:00;9.10;99.90
17986;DHT22;9118;48.122;11.546;2024-03-17T05:19:27;9.10;99.90
17986;DHT22;9118;48.122;11.546;2024-03-17T05:21:54;9.20;99.90
17986;DHT22;9118;48.122;11.546;2024-03-17T05:24:21;9.20;99.90
17986;DHT22;9118;48.122;11.546;2024-03-17T05:26:48;9.20;99.90
17986;DHT22;9118;48.122;11.546;2024-03-17T05:29:14;9.30;99.90
17986;DHT22;9118;48.122;11.546;2024-03-17T05:31:41;9.30;99.90
17986;DHT22;9118;48.122;11.546;2024-03-17T05:34:10;9.30;99.90
17986;DHT22;9118;48.122;11.546;2024-03-17T05:36:38;9.40;99.90
17986;DHT22;9118;48.122;11.546;2024-03-17T05:39:05;9.30;99.90
17986;DHT22;9118;48.122;11.546;2024-03-17T05:41:32;9.30;99.90
17986;DHT22;9118;48.122;11.546;2024-03-17T05:43:59;9.30;99.90
17986;DHT22;9118;48.122;11.546;2024-03-17T05:46:29;9.20;99.90
17986;DHT22;9118;48.122;11.546;2024-03-17T05:48:56;9.30;99.90
17986;DHT22;9118;48.122;11.546;2024-03-17T05:51:24;9.30;99.90
17986;DHT22;9118;48.122;11.546;2024-03-17T05:53:53;9.80;99.90
17986;DHT22;9118;48.122;11.546;2024-03-17T05:56:21;9.70;99.90
17986;DHT22;9118;48.122;11.546;2024-03-17T05:58:49;9.40;99.90
17986;DHT22;9118;48.122;11.546;2024-03-17T06:01:17;9.40;99.90
17986;DHT22;9118;48.122;11.546;2024-03-17T06:03:44;9.50;99.90
17986;DHT22;9118;48.122;11.546;2024-03-17T06:06:11;9.90;99.90
17986;DHT22;9118;48.122;11.546;2024-03-17T06:08:40;9.80;99.90
17986;DHT22;9118;48.122;11.546;2024-03-17T06:11:07;9.60;99.90
17986;DHT22;9118;48.122;11.546;2024-03-17T06:13:34;9.60;99.90
17986;DHT22;9118;48.122;11.546;2024-03-17T06:16:02;9.60;99.90
17986;DHT22;9118;48.122;11.546;2024-03-17T06:18:31;9.60;99.90
17986;DHT22;9118;48.122;11.546;2024-03-17T06:20:58;9.60;99.90
17986;DHT22;9118;48.122;11.546;2024-03-17T06:23:25;9.70;99.90
17986;DHT22;9118;48.122;11.546;2024-03-17T06:25:55;9.70;99.90
17986;DHT22;9118;48.122;11.546;2024-03-17T06:28:22;10.50;99.90
17986;DHT22;9118;48.122;11.546;2024-03-17T06:30:56;9.80;99.90
17986;DHT22;9118;48.122;11.546;2024-03-17T06:33:24;9.80;99.90
17986;DHT22;9118;48.122;11.546;2024-03-17T06:35:52;9.80;99.90
17986;DHT22;9118;48.122;11.546;2024-03-17T06:38:19;9.90;99.90
17986;DHT22;9118;48.122;11.546;2024-03-17T06:40:49;9.90;99.90
17986;DHT22;9118;48.122;11.546;2024-03-17T06:43:18;9.90;99.90
17986;DHT22;9118;48.122;11.546;2024-03-17T06:45:53;10.00;99.90
17986;DHT22;9118;48.122;11.546;2024-03-17T06:48:20;10.00;99.90
17986;DHT22;9118;48.122;11.546;2024-03-17T06:50:47;10.30;99.90
17986;DHT22;9118;48.122;11.546;2024-03-17T06:53:14;10.20;99.90
17986;DHT22;9118;48.122;11.546;2024-03-17T06:55:41;10.20;99.90
17986;DHT22;9118;48.122;11.546;2024-03-17T06:58:08;10.20;99.90
17986;DHT22;9118;48.122;11.546;2024-03-17T07:00:36;10.20;99.90
17986;DHT22;9118;48.122;11.546;2024-03-17T07:03:03;10.20;99.90
17986;DHT22;9118;48.122;11.546;2024-03-17T07:05:30;10.20;99.90
17986;DHT22;9118;48.122;11.546;2024-03-17T07:07:59;10.30;99.90
17986;DHT22;9118;48.122;11.546;2024-03-17T07:10:26;10.30;99.90
17986;DHT22;9118;48.122;11.546;2024-03-17T07:12:53;10.40;99.90
17986;DHT22;9118;48.122;11.546;2024-03-17T07:15:20;10.40;99.90
17986;DHT22;9118;48.122;11.546;2024-03-17T07:17:49;10.50;99.90
17986;DHT22;9118;48.122;11.546;2024-03-17T07:20:16;10.50;99.90
17986;DHT22;9118;48.122;11.546;2024-03-17T07:22:43;10.60;99.90
17986;DHT22;9118;48.122;11.546;2024-03-17T07:25:10;10.70;99.90
17986;DHT22;9118;48.122;11.546;2024-03-17T07:27:38;10.80;99.90
17986;DHT22;9118;48.122;11.546;2024-03-17T07:30:06;10.80;99.90
17986;DHT22;9118;48.122;11.546;2024-03-17T07:32:34;10.80;99.90
17986;DHT22;9118;48.122;11.546;2024-03-17T07:35:02;10.90;99.90
17986;DHT22;9118;48.122;11.546;2024-03-17T07:37:29;11.30;99.90
17986;DHT22;9118;48.122;11.546;2024-03-17T07:39:56;11.10;99.90
17986;DHT22;9118;48.122;11.546;2024-03-17T07:42:26;11.30;99.90
17986;DHT22;9118;48.122;11.546;2024-03-17T07:44:53;11.30;99.90
17986;DHT22;9118;48.122;11.546;2024-03-17T07:47:20;11.40;99.90
17986;DHT22;9118;48.122;11.546;2024-03-17T07:49:47;11.20;99.90
17986;DHT22;9118;48.122;11.546;2024-03-17T07:52:15;11.20;99.90
17986;DHT22;9118;48.122;11.546;2024-03-17T07:54:44;11.90;99.90
17986;DHT22;9118;48.122;11.546;2024-03-17T07:57:12;11.90;99.90
17986;DHT22;9118;48.122;11.546;2024-03-17T07:59:40;11.80;99.90
17986;DHT22;9118;48.122;11.546;2024-03-17T08:02:08;11.70;99.90
17986;DHT22;9118;48.122;11.546;2024-03-17T08:04:35;11.80;99.90
17986;DHT22;9118;48.122;11.546;2024-03-17T08:07:04;12.30;99.90
17986;DHT22;9118;48.122;11.546;2024-03-17T08:09:33;12.00;99.90
17986;DHT22;9118;48.122;11.546;2024-03-17T08:12:00;12.10;99.90
17986;DHT22;9118;48.122;11.546;2024-03-17T08:14:27;12.80;99.90
17986;DHT22;9118;48.122;11.546;2024-03-17T08:16:54;12.30;99.90
17986;DHT22;9118;48.122;11.546;2024-03-17T08:19:21;12.70;99.90
17986;DHT22;9118;48.122;11.546;2024-03-17T08:21:49;12.20;99.90
17986;DHT22;9118;48.122;11.546;2024-03-17T08:24:16;12.20;99.90
17986;DHT22;9118;48.122;11.546;2024-03-17T08:26:44;12.40;99.90
17986;DHT22;9118;48.122;11.546;2024-03-17T08:29:13;12.50;99.90
17986;DHT22;9118;48.122;11.546;2024-03-17T08:31:40;12.40;99.90
17986;DHT22;9118;48.122;11.546;2024-03-17T08:34:07;12.50;99.90
17986;DHT22;9118;48.122;11.546;2024-03-17T08:36:34;12.60;99.90
17986;DHT22;9118;48.122;11.546;2024-03-17T08:39:01;12.80;99.90
17986;DHT22;9118;48.122;11.546;2024-03-17T08:41:28;12.80;99.90
17986;DHT22;9118;48.122;11.546;2024-03-17T08:43:58;12.90;99.90
17986;DHT22;9118;48.122;11.546;2024-03-17T08:46:26;13.20;99.90
17986;DHT22;9118;48.122;11.546;2024-03-17T08:48:53;13.90;99.90
17986;DHT22;9118;48.122;11.546;2024-03-17T08:51:19;13.60;99.90
17986;DHT22;9118;48.122;11.546;2024-03-17T08:53:46;13.60;99.90
17986;DHT22;9118;48.122;11.546;2024-03-17T08:56:13;13.60;99.90
17986;DHT22;9118;48.122;11.546;2024-03-17T08:58:40;13.90;99.90
17986;DHT22;9118;48.122;11.546;2024-03-17T09:01:08;13.50;99.90
17986;DHT22;9118;48.122;11.546;2024-03-17T09:03:35;13.40;99.90
17986;DHT22;9118;48.122;11.546;2024-03-17T09:06:02;13.50;99.90
17986;DHT22;9118;48.122;11.546;2024-03-17T09:08:29;13.60;99.90
17986;DHT22;9118;48.122;11.546;2024-03-17T09:10:58;13.40;99.90
17986;DHT22;9118;48.122;11.546;2024-03-17T09:13:25;13.30;99.90
17986;DHT22;9118;48.122;11.546;2024-03-17T09:15:52;13.20;99.90
17986;DHT22;9118;48.122;11.546;2024-03-17T09:18:22;13.10;99.90
17986;DHT22;9118;48.122;11.546;2024-03-17T09:20:58;12.80;99.90
17986;DHT22;9118;48.122;11.546;2024-03-17T09:23:26;12.50;99.90
17986;DHT22;9118;48.122;11.546;2024-03-17T09:25:56;12.50;99.90
17986;DHT22;9118;48.122;11.546;2024-03-17T09:28:22;12.40;99.90
17986;DHT22;9118;48.122;11.546;2024-03-17T09:30:49;12.40;99.90
17986;DHT22;9118;48.122;11.546;2024-03-17T09:33:18;12.50;99.90
17986;DHT22;9118;48.122;11.546;2024-03-17T09:35:53;12.70;99.90
17986;DHT22;9118;48.122;11.546;2024-03-17T09:38:21;12.90;99.90
17986;DHT22;9118;48.122;11.546;2024-03-17T09:40:48;13.20;99.90
17986;DHT22;9118;48.122;11.546;2024-03-17T09:43:18;13.40;99.90
17986;DHT22;9118;48.122;11.546;2024-03-17T09:45:45;13.40;99.90
17986;DHT22;9118;48.122;11.546;2024-03-17T09:48:13;13.30;99.90
17986;DHT22;9118;48.122;11.546;2024-03-17T09:50:41;13.30;99.90
17986;DHT22;9118;48.122;11.546;2024-03-17T09:53:12;13.20;99.90
17986;DHT22;9118;48.122;11.546;2024-03-17T09:55:42;12.60;99.90
17986;DHT22;9118;48.122;11.546;2024-03-17T09:58:10;13.00;99.90
17986;DHT22;9118;48.122;11.546;2024-03-17T10:00:40;12.80;99.90
17986;DHT22;9118;48.122;11.546;2024-03-17T10:03:07;12.30;99.90
17986;DHT22;9118;48.122;11.546;2024-03-17T10:05:35;13.10;99.90
17986;DHT22;9118;48.122;11.546;2024-03-17T10:08:02;13.40;99.90
17986;DHT22;9118;48.122;11.546;2024-03-17T10:10:30;13.20;99.90
17986;DHT22;9118;48.122;11.546;2024-03-17T10:12:57;13.20;99.90
17986;DHT22;9118;48.122;11.546;2024-03-17T10:15:24;13.20;99.90
17986;DHT22;9118;48.122;11.546;2024-03-17T10:17:51;13.30;99.90
17986;DHT22;9118;48.122;11.546;2024-03-17T10:20:20;12.70;99.90
17986;DHT22;9118;48.122;11.546;2024-03-17T10:22:58;13.40;99.90
17986;DHT22;9118;48.122;11.546;2024-03-17T10:25:26;13.60;99.90
17986;DHT22;9118;48.122;11.546;2024-03-17T10:27:55;14.00;99.90
17986;DHT22;9118;48.122;11.546;2024-03-17T10:30:22;13.90;99.90
17986;DHT22;9118;48.122;11.546;2024-03-17T10:32:55;13.70;99.90
17986;DHT22;9118;48.122;11.546;2024-03-17T10:37:53;14.20;99.90
17986;DHT22;9118;48.122;11.546;2024-03-17T10:40:20;14.10;99.90
17986;DHT22;9118;48.122;11.546;2024-03-17T10:42:48;13.90;99.90
17986;DHT22;9118;48.122;11.546;2024-03-17T10:45:17;14.10;99.90
17986;DHT22;9118;48.122;11.546;2024-03-17T10:47:47;14.30;99.90
17986;DHT22;9118;48.122;11.546;2024-03-17T10:50:16;13.70;99.90
17986;DHT22;9118;48.122;11.546;2024-03-17T10:52:44;14.80;99.90
17986;DHT22;9118;48.122;11.546;2024-03-17T10:55:22;14.50;99.90
17986;DHT22;9118;48.122;11.546;2024-03-17T10:57:52;14.50;99.90
17986;DHT22;9118;48.122;11.546;2024-03-17T11:00:22;14.30;99.90
17986;DHT22;9118;48.122;11.546;2024-03-17T11:02:49;14.80;99.90
17986;DHT22;9118;48.122;11.546;2024-03-17T11:05:18;15.20;99.90
17986;DHT22;9118;48.122;11.546;2024-03-17T11:07:46;14.70;99.90
17986;DHT22;9118;48.122;11.546;2024-03-17T11:10:18;14.70;99.90
17986;DHT22;9118;48.122;11.546;2024-03-17T11:12:46;14.40;99.90
17986;DHT22;9118;48.122;11.546;2024-03-17T11:20:43;14.60;99.90
17986;DHT22;9118;48.122;11.546;2024-03-17T11:23:25;14.30;99.90
17986;DHT22;9118;48.122;11.546;2024-03-17T11:25:53;14.60;99.90
17986;DHT22;9118;48.122;11.546;2024-03-17T11:31:01;14.60;99.90
17986;DHT22;9118;48.122;11.546;2024-03-17T11:38:51;14.80;99.90
17986;DHT22;9118;48.122;11.546;2024-03-17T11:41:32;14.40;99.90
17986;DHT22;9118;48.122;11.546;2024-03-17T11:44:12;14.90;99.90
17986;DHT22;9118;48.122;11.546;2024-03-17T11:46:39;14.50;99.90
17986;DHT22;9118;48.122;11.546;2024-03-17T11:49:05;14.60;99.90
17986;DHT22;9118;48.122;11.546;2024-03-17T11:51:33;14.50;99.90
17986;DHT22;9118;48.122;11.546;2024-03-17T11:54:01;15.10;99.90
17986;DHT22;9118;48.122;11.546;2024-03-17T11:56:29;15.00;99.90
17986;DHT22;9118;48.122;11.546;2024-03-17T11:59:03;14.70;99.90
17986;DHT22;9118;48.122;11.546;2024-03-17T12:01:30;14.80;99.90
17986;DHT22;9118;48.122;11.546;2024-03-17T12:03:56;15.20;99.90
17986;DHT22;9118;48.122;11.546;2024-03-17T12:06:25;14.80;99.90
17986;DHT22;9118;48.122;11.546;2024-03-17T12:08:50;14.80;99.90
17986;DHT22;9118;48.122;11.546;2024-03-17T12:11:19;14.90;99.90
17986;DHT22;9118;48.122;11.546;2024-03-17T12:13:45;14.60;99.90
17986;DHT22;9118;48.122;11.546;2024-03-17T12:16:12;14.80;99.90
17986;DHT22;9118;48.122;11.546;2024-03-17T12:18:38;14.60;99.90
17986;DHT22;9118;48.122;11.546;2024-03-17T12:21:10;14.80;99.90
17986;DHT22;9118;48.122;11.546;2024-03-17T12:23:37;14.60;99.90
17986;DHT22;9118;48.122;11.546;2024-03-17T12:26:04;14.60;99.90
17986;DHT22;9118;48.122;11.546;2024-03-17T12:28:32;15.20;99.90
17986;DHT22;9118;48.122;11.546;2024-03-17T12:30:59;13.80;99.90
17986;DHT22;9118;48.122;11.546;2024-03-17T12:33:26;14.50;99.90
17986;DHT22;9118;48.122;11.546;2024-03-17T12:35:54;14.50;99.90
17986;DHT22;9118;48.122;11.546;2024-03-17T12:38:26;14.70;99.90
17986;DHT22;9118;48.122;11.546;2024-03-17T12:40:52;14.70;99.90
17986;DHT22;9118;48.122;11.546;2024-03-17T12:43:18;14.90;99.90
17986;DHT22;9118;48.122;11.546;2024-03-17T12:45:47;15.40;99.90
17986;DHT22;9118;48.122;11.546;2024-03-17T12:48:16;15.50;99.90
17986;DHT22;9118;48.122;11.546;2024-03-17T12:50:45;15.90;99.90
17986;DHT22;9118;48.122;11.546;2024-03-17T12:53:15;16.10;99.90
17986;DHT22;9118;48.122;11.546;2024-03-17T12:55:41;15.90;99.90
17986;DHT22;9118;48.122;11.546;2024-03-17T12:58:31;15.50;99.90
17986;DHT22;9118;48.122;11.546;2024-03-17T13:01:17;14.40;99.90
17986;DHT22;9118;48.122;11.546;2024-03-17T13:03:45;15.10;99.90
17986;DHT22;9118;48.122;11.546;2024-03-17T13:06:20;13.20;99.90
17986;DHT22;9118;48.122;11.546;2024-03-17T13:08:49;15.70;99.90
17986;DHT22;9118;48.122;11.546;2024-03-17T13:11:16;15.60;99.90
17986;DHT22;9118;48.122;11.546;2024-03-17T13:13:43;16.00;99.90
17986;DHT22;9118;48.122;11.546;2024-03-17T13:16:10;16.10;99.90
17986;DHT22;9118;48.122;11.546;2024-03-17T13:18:40;16.10;99.90
17986;DHT22;9118;48.122;11.546;2024-03-17T13:21:07;15.90;99.90
17986;DHT22;9118;48.122;11.546;2024-03-17T13:23:34;14.90;99.90
17986;DHT22;9118;48.122;11.546;2024-03-17T13:26:01;14.70;99.90
17986;DHT22;9118;48.122;11.546;2024-03-17T13:28:28;14.90;99.90
17986;DHT22;9118;48.122;11.546;2024-03-17T13:30:57;14.40;99.90
17986;DHT22;9118;48.122;11.546;2024-03-17T13:33:24;15.70;99.90
17986;DHT22;9118;48.122;11.546;2024-03-17T13:35:52;15.50;99.90
17986;DHT22;9118;48.122;11.546;2024-03-17T13:38:19;15.80;99.90
17986;DHT22;9118;48.122;11.546;2024-03-17T13:40:46;15.70;99.90
17986;DHT22;9118;48.122;11.546;2024-03-17T13:43:13;15.70;99.90
17986;DHT22;9118;48.122;11.546;2024-03-17T13:45:41;16.10;99.90
17986;DHT22;9118;48.122;11.546;2024-03-17T13:48:08;16.00;99.90
17986;DHT22;9118;48.122;11.546;2024-03-17T13:50:37;16.20;99.90
17986;DHT22;9118;48.122;11.546;2024-03-17T13:53:06;16.80;99.90
17986;DHT22;9118;48.122;11.546;2024-03-17T13:55:33;16.50;99.90
17986;DHT22;9118;48.122;11.546;2024-03-17T13:58:00;16.00;99.90
17986;DHT22;9118;48.122;11.546;2024-03-17T14:00:30;16.30;99.90
17986;DHT22;9118;48.122;11.546;2024-03-17T14:02:59;16.30;99.90
17986;DHT22;9118;48.122;11.546;2024-03-17T14:05:26;16.50;99.90
17986;DHT22;9118;48.122;11.546;2024-03-17T14:07:54;16.30;99.90
17986;DHT22;9118;48.122;11.546;2024-03-17T14:10:24;16.00;99.90
17986;DHT22;9118;48.122;11.546;2024-03-17T14:12:52;15.40;99.90
17986;DHT22;9118;48.122;11.546;2024-03-17T14:15:20;15.50;99.90
17986;DHT22;9118;48.122;11.546;2024-03-17T14:17:47;15.50;99.90
17986;DHT22;9118;48.122;11.546;2024-03-17T14:20:14;14.90;99.90
17986;DHT22;9118;48.122;11.546;2024-03-17T14:22:43;15.20;99.90
17986;DHT22;9118;48.122;11.546;2024-03-17T14:25:14;15.90;99.90
17986;DHT22;9118;48.122;11.546;2024-03-17T14:27:43;15.60;99.90
17986;DHT22;9118;48.122;11.546;2024-03-17T14:30:11;15.70;99.90
17986;DHT22;9118;48.122;11.546;2024-03-17T14:32:40;15.20;99.90
17986;DHT22;9118;48.122;11.546;2024-03-17T14:35:10;15.90;99.90
17986;DHT22;9118;48.122;11.546;2024-03-17T14:37:38;15.20;99.90
17986;DHT22;9118;48.122;11.546;2024-03-17T14:40:08;15.10;99.90
17986;DHT22;9118;48.122;11.546;2024-03-17T14:42:40;15.10;99.90
17986;DHT22;9118;48.122;11.546;2024-03-17T14:45:10;14.90;99.90
17986;DHT22;9118;48.122;11.546;2024-03-17T14:47:37;15.20;99.90
17986;DHT22;9118;48.122;11.546;2024-03-17T14:50:05;14.90;99.90
17986;DHT22;9118;48.122;11.546;2024-03-17T14:52:32;14.80;99.90
17986;DHT22;9118;48.122;11.546;2024-03-17T14:55:00;15.00;99.90
17986;DHT22;9118;48.122;11.546;2024-03-17T14:57:27;14.60;99.90
17986;DHT22;9118;48.122;11.546;2024-03-17T14:59:54;14.80;99.90
17986;DHT22;9118;48.122;11.546;2024-03-17T15:02:22;14.40;99.90
17986;DHT22;9118;48.122;11.546;2024-03-17T15:04:50;14.70;99.90
17986;DHT22;9118;48.122;11.546;2024-03-17T15:07:18;14.90;99.90
17986;DHT22;9118;48.122;11.546;2024-03-17T15:09:45;15.00;99.90
17986;DHT22;9118;48.122;11.546;2024-03-17T15:12:13;14.90;99.90
17986;DHT22;9118;48.122;11.546;2024-03-17T15:14:40;14.80;99.90
17986;DHT22;9118;48.122;11.546;2024-03-17T15:17:07;14.70;99.90
17986;DHT22;9118;48.122;11.546;2024-03-17T15:19:37;14.60;99.90
17986;DHT22;9118;48.122;11.546;2024-03-17T15:22:07;14.00;99.90
17986;DHT22;9118;48.122;11.546;2024-03-17T15:24:34;14.60;99.90
17986;DHT22;9118;48.122;11.546;2024-03-17T15:27:01;13.90;99.90
17986;DHT22;9118;48.122;11.546;2024-03-17T15:29:28;13.90;99.90
17986;DHT22;9118;48.122;11.546;2024-03-17T15:31:55;14.50;99.90
17986;DHT22;9118;48.122;11.546;2024-03-17T15:34:23;13.90;99.90
17986;DHT22;9118;48.122;11.546;2024-03-17T15:36:51;14.10;99.90
17986;DHT22;9118;48.122;11.546;2024-03-17T15:39:18;14.80;99.90
17986;DHT22;9118;48.122;11.546;2024-03-17T15:41:45;14.10;99.90
17986;DHT22;9118;48.122;11.546;2024-03-17T15:44:13;13.80;99.90
17986;DHT22;9118;48.122;11.546;2024-03-17T15:46:41;13.90;99.90
17986;DHT22;9118;48.122;11.546;2024-03-17T15:49:08;14.20;99.90
17986;DHT22;9118;48.122;11.546;2024-03-17T15:51:35;14.10;99.90
17986;DHT22;9118;48.122;11.546;2024-03-17T15:54:06;13.80;99.90
17986;DHT22;9118;48.122;11.546;2024-03-17T15:56:33;14.00;99.90
17986;DHT22;9118;48.122;11.546;2024-03-17T15:59:00;14.30;99.90